Truro, Iowa
Current Conditions -  °F | °C
As of 4:15 PM on Wednesday 28 Jan 2015 (Local Time) from KI75 Reporting Station
Clear Clear  
Wind Chill: 55°   Ceiling: Unl
Heat Index: 55°   Visibility: 10mi
Dew Point: 40°   Wind: 17mph
Humidity: 57%   Direction: 150°SSE
Pressure: 29.67"   Gusts: NA
Location:  41.21°N, 93.85°W
Report Text: KI75 282215Z AUTO 15015KT 10SM CLR 13/04 A2967 RMK AO2 T01250043
Loading
Personal Weather Stations






























Interactive Weather Map New forecast layout! Learn more

10-Day Weather Forecast

Advertisements
Track Severe Weather on mobile